CW7222 Mataro ES current weather conditions

sailwx.info

Wind from 345 at 6 knots gusting 8

Air temperature 10.6° C
Dewpoint 5.5° C

Last reported at 2019-Dec-11 02:03 UTC.
Time now 2019-Dec-11 02:26 UTC

Location: N 41°33' E 002°28'.
View on Google Maps.

See reports from other nearby stations

  
Tides and Currents Weather Stations Pressure Air Temp Water Temp Dewpoint Dewpoint Depression Visibility Wind Speed Wind Dir Waves Ship Positions
date/time (UTC)wind fromknots sea level pressurealtimeterstation pressurevisibilityair tempwater tempwave heightnotes
2019-Dec-11 02:03 345 6 gusting 8 10.6
2019-Dec-11 01:53 341 6 gusting 10 10.6
2019-Dec-11 01:43 340 5 gusting 8 10.6
2019-Dec-11 01:33 337 4 gusting 6 10.6
2019-Dec-11 01:23 332 3 gusting 5 10.0
2019-Dec-11 01:13 311 3 gusting 5 10.0
2019-Dec-11 01:03 338 3 gusting 5 10.0
2019-Dec-11 00:53 337 3 gusting 6 10.6
2019-Dec-11 00:43 337 4 gusting 6 10.0
2019-Dec-11 00:33 341 5 gusting 8 9.4
2019-Dec-11 00:23 332 2 gusting 6 10.0
2019-Dec-11 00:13 317 4 gusting 5 9.4
2019-Dec-11 00:03 318 2 gusting 5 9.4
2019-Dec-10 23:53 334 2 gusting 4 9.4
2019-Dec-10 23:43 333 3 gusting 6 10.0
2019-Dec-10 23:33 348 4 gusting 6 9.4
2019-Dec-10 23:23 317 2 gusting 5 9.4
2019-Dec-10 23:13 344 2 gusting 6 9.4
2019-Dec-10 23:03 331 3 gusting 5 10.0
2019-Dec-10 22:53 339 2 gusting 5 8.9
2019-Dec-10 22:43 344 3 gusting 5 8.9
2019-Dec-10 22:33 342 0 gusting 2 8.9
2019-Dec-10 22:23 343 9.4
2019-Dec-10 22:13 342 10.0
2019-Dec-10 22:04 341 0 gusting 5 10.0
2019-Dec-10 21:53 013 3 gusting 5 10.0
2019-Dec-10 21:43 342 2 gusting 5 10.0
2019-Dec-10 21:33 338 2 gusting 4 10.0
2019-Dec-10 21:23 355 2 gusting 4 10.0
2019-Dec-10 21:13 342 10.0
2019-Dec-10 21:03 342 2 gusting 5 10.0
2019-Dec-10 20:53 360 3 gusting 5 10.0
2019-Dec-10 20:43 349 3 gusting 6 10.0
2019-Dec-10 20:33 355 0 gusting 5 9.4
2019-Dec-10 20:23 355 3 gusting 5 8.9
2019-Dec-10 20:14 336 2 gusting 4 8.3
2019-Dec-10 20:03 329 2 gusting 4 7.8
2019-Dec-10 19:53 342 0 gusting 2 7.8
2019-Dec-10 19:43 342 1 gusting 4 7.8
2019-Dec-10 19:34 344 0 gusting 2 7.8
2019-Dec-10 19:23 345 2 gusting 3 7.8
2019-Dec-10 19:13 232 0 gusting 3 8.3
2019-Dec-10 19:03 236 1 gusting 2 8.3
2019-Dec-10 18:53 237 2 gusting 3 8.3
2019-Dec-10 18:43 234 8.3
2019-Dec-10 18:33 232 8.3
2019-Dec-10 18:23 234 1 gusting 3 8.3
2019-Dec-10 18:13 229 1 gusting 3 8.3
2019-Dec-10 18:03 227 0 gusting 2 8.9
2019-Dec-10 17:53 230 0 gusting 5 8.9
2019-Dec-10 17:43 227 0 gusting 2 9.4
2019-Dec-10 17:33 231 1 gusting 5 9.4
2019-Dec-10 17:23 236 3 gusting 5 8.9
2019-Dec-10 17:13 360 3 gusting 5 8.9
2019-Dec-10 17:03 234 0 gusting 3 9.4
2019-Dec-10 16:53 240 9.4
2019-Dec-10 16:43 233 2 gusting 4 9.4
2019-Dec-10 16:33 327 0 gusting 2 10.0
2019-Dec-10 16:23 325 10.6
2019-Dec-10 16:13 322 11.7
2019-Dec-10 16:03 329 11.7
2019-Dec-10 15:53 317 0 gusting 3 11.7
2019-Dec-10 15:43 276 1 gusting 3 12.2
2019-Dec-10 15:33 171 12.8
2019-Dec-10 15:23 173 13.3
2019-Dec-10 15:13 173 13.3
2019-Dec-10 15:03 173 13.3
2019-Dec-10 14:53 119 13.3
2019-Dec-10 14:43 175 13.3
2019-Dec-10 14:33 175 0 gusting 2 13.3
2019-Dec-10 14:23 195 0 gusting 2 13.3
2019-Dec-10 14:13 213 2 gusting 4 13.3
2019-Dec-10 14:03 197 2 gusting 5 13.9
2019-Dec-10 13:53 187 1 gusting 4 13.9
2019-Dec-10 13:43 209 0 gusting 5 13.9
2019-Dec-10 13:33 200 3 gusting 7 13.3
2019-Dec-10 13:23 184 3 gusting 6 13.3
2019-Dec-10 13:13 155 4 gusting 6 13.3
2019-Dec-10 13:03 146 5 gusting 8 13.3
2019-Dec-10 12:53 179 3 gusting 6 13.3
2019-Dec-10 12:43 221 3 gusting 7 13.3
2019-Dec-10 12:33 150 2 gusting 6 13.3
2019-Dec-10 12:23 159 1 gusting 7 13.3
2019-Dec-10 12:13 134 4 gusting 7 13.3
2019-Dec-10 12:03 168 2 gusting 6 12.8
2019-Dec-10 11:53 134 4 gusting 6 12.8
2019-Dec-10 11:43 167 2 gusting 6 12.8
2019-Dec-10 11:33 159 3 gusting 6 12.8
2019-Dec-10 11:23 165 3 gusting 6 12.8
2019-Dec-10 11:13 170 5 gusting 8 12.8
2019-Dec-10 11:03 145 3 gusting 6 12.8
2019-Dec-10 10:53 158 2 gusting 6 12.8
2019-Dec-10 10:43 241 3 gusting 6 12.8
2019-Dec-10 10:33 178 0 gusting 3 13.3
2019-Dec-10 10:23 209 12.8
2019-Dec-10 10:13 216 12.8
2019-Dec-10 10:03 150 12.8
2019-Dec-10 09:53 153 12.2
2019-Dec-10 09:43 154 12.2
2019-Dec-10 09:33 154 11.7
2019-Dec-10 09:23 130 0 gusting 2 11.7
2019-Dec-10 09:13 082 11.7
2019-Dec-10 09:03 082 11.7
2019-Dec-10 08:53 082 11.7
2019-Dec-10 08:43 082 11.7
2019-Dec-10 08:33 082 11.1
2019-Dec-10 08:23 336 10.6
2019-Dec-10 08:13 338 0 gusting 4 10.0
2019-Dec-10 08:03 336 1 gusting 5 9.4
2019-Dec-10 07:53 342 3 gusting 6 8.9
2019-Dec-10 07:43 338 2 gusting 5 8.3
2019-Dec-10 07:33 342 1 gusting 5 7.8
2019-Dec-10 07:23 336 3 gusting 5 7.8
2019-Dec-10 07:13 330 2 gusting 4 7.8
2019-Dec-10 07:03 350 1 gusting 3 7.2
2019-Dec-10 06:53 348 1 gusting 3 7.2
2019-Dec-10 06:43 343 3 gusting 5 7.2
2019-Dec-10 06:33 344 2 gusting 3 7.2
2019-Dec-10 06:23 327 2 gusting 3 6.7
2019-Dec-10 06:13 342 6.7
2019-Dec-10 06:03 341 2 gusting 3 6.7
2019-Dec-10 05:53 340 2 gusting 4 6.7
2019-Dec-10 05:43 342 0 gusting 3 7.2
2019-Dec-10 05:33 342 7.8
2019-Dec-10 05:23 342 7.8
2019-Dec-10 05:13 341 7.8
2019-Dec-10 05:03 338 7.8
2019-Dec-10 04:53 338 7.2
2019-Dec-10 04:43 342 0 gusting 4 7.2
2019-Dec-10 04:33 350 7.8
2019-Dec-10 04:23 360 7.8
2019-Dec-10 04:13 360 0 gusting 6 7.8
2019-Dec-10 04:03 336 0 gusting 3 7.2
2019-Dec-10 03:53 349 7.8
2019-Dec-10 03:43 340 7.8
2019-Dec-10 03:33 339 7.8
2019-Dec-10 03:23 340 1 gusting 4 8.3
2019-Dec-10 03:13 321 8.3
2019-Dec-10 03:04 321 1 gusting 3 8.3
2019-Dec-10 02:53 305 2 gusting 4 8.9
2019-Dec-10 02:43 323 1 gusting 6 9.4
2019-Dec-10 02:33 319 3 gusting 5 9.4
2019-Dec-10 02:23 360 3 gusting 5 9.4
2019-Dec-10 02:13 013 2 gusting 6 9.4
2019-Dec-10 02:03 349 2 gusting 6 8.9
2019-Dec-10 01:53 343 2 gusting 5 8.9
2019-Dec-10 01:43 344 3 gusting 6 8.9
2019-Dec-10 01:33 338 3 gusting 5 8.3
2019-Dec-10 01:23 334 2 gusting 4 8.3
2019-Dec-10 01:13 344 2 gusting 6 8.9
2019-Dec-10 01:03 336 3 gusting 5 8.9
2019-Dec-10 00:53 037 0 gusting 2 10.0
2019-Dec-10 00:43 038 0 gusting 1 9.4
2019-Dec-10 00:33 339 9.4
2019-Dec-10 00:23 333 1 gusting 5 9.4
2019-Dec-10 00:13 360 0 gusting 2 10.6
2019-Dec-10 00:03 032 1 gusting 3 10.0
2019-Dec-09 23:53 048 1 gusting 5 9.4
2019-Dec-09 23:43 030 5 gusting 7 9.4
2019-Dec-09 23:33 337 3 gusting 6 9.4
2019-Dec-09 23:23 342 8.9
2019-Dec-09 23:13 334 8.9
2019-Dec-09 23:03 342 1 gusting 3 9.4
2019-Dec-09 22:53 347 0 gusting 2 9.4
2019-Dec-09 22:43 348 1 gusting 3 9.4
2019-Dec-09 22:33 340 10.0
2019-Dec-09 22:23 340 1 gusting 5 10.0
2019-Dec-09 22:13 350 10.0
2019-Dec-09 22:03 349 2 gusting 4 10.0
2019-Dec-09 21:53 350 3 gusting 5 10.6
2019-Dec-09 21:43 350 0 gusting 3 11.1
2019-Dec-09 21:33 350 2 gusting 4 11.7
2019-Dec-09 21:23 322 11.7
2019-Dec-09 21:13 322 11.7
2019-Dec-09 21:03 323 11.7
2019-Dec-09 20:53 337 2 gusting 5 12.8
2019-Dec-09 20:43 360 0 gusting 4 12.8
2019-Dec-09 20:33 010 13.3
2019-Dec-09 20:23 005 2 gusting 4 13.3
2019-Dec-09 20:13 351 1 gusting 5 12.8
2019-Dec-09 20:03 350 0 gusting 4 13.3
2019-Dec-09 19:53 233 2 gusting 5 13.9
2019-Dec-09 19:43 005 14.4
2019-Dec-09 19:33 360 3 gusting 7 14.4
2019-Dec-09 19:23 013 3 gusting 10 14.4
2019-Dec-09 19:13 014 1 gusting 7 13.9
2019-Dec-09 19:03 010 1 gusting 4 13.9
2019-Dec-09 18:53 035 1 gusting 4 13.9
2019-Dec-09 18:43 026 3 gusting 6 13.9
2019-Dec-09 18:33 015 1 gusting 6 13.9
2019-Dec-09 18:23 018 2 gusting 7 13.9
2019-Dec-09 18:13 360 1 gusting 6 14.4
2019-Dec-09 18:03 248 5 gusting 11 14.4
2019-Dec-09 17:53 230 5 gusting 8 14.4
2019-Dec-09 17:43 232 4 gusting 7 14.4
2019-Dec-09 17:36 236 3 gusting 8 15.0
2019-Dec-09 17:23 236 5 gusting 8 15.0
2019-Dec-09 17:13 005 5 gusting 11 15.0
2019-Dec-09 17:03 229 5 gusting 9 15.0
2019-Dec-09 16:53 222 4 gusting 7 15.0
2019-Dec-09 16:43 218 5 gusting 12 15.0
2019-Dec-09 16:33 200 2 gusting 6 14.4
2019-Dec-09 16:23 227 0 gusting 5 15.0
2019-Dec-09 16:13 230 0 gusting 5 15.0
2019-Dec-09 16:03 336 1 gusting 10 15.6
2019-Dec-09 15:53 309 5 gusting 10 16.1
2019-Dec-09 15:43 270 16.7
2019-Dec-09 15:33 094 16.7
2019-Dec-09 15:23 240 16.7
2019-Dec-09 15:13 323 0 gusting 3 17.2
2019-Dec-09 15:03 298 1 gusting 6 17.2
2019-Dec-09 14:53 325 17.8
2019-Dec-09 14:43 329 0 gusting 6 17.2
2019-Dec-09 14:33 299 1 gusting 5 17.2
2019-Dec-09 14:23 182 17.2
2019-Dec-09 14:13 311 17.2
2019-Dec-09 14:03 337 2 gusting 6 16.7
2019-Dec-09 13:53 350 3 gusting 10 16.7
2019-Dec-09 13:43 013 1 gusting 10 16.7
2019-Dec-09 13:33 360 6 gusting 12 16.1
2019-Dec-09 13:23 313 6 gusting 13 16.1
2019-Dec-09 13:13 329 6 gusting 13 15.6
2019-Dec-09 13:03 302 8 gusting 13 15.6
2019-Dec-09 12:53 333 10 gusting 14 15.6
2019-Dec-09 12:43 339 6 gusting 13 15.6
2019-Dec-09 12:33 238 9 gusting 15 15.0
2019-Dec-09 12:23 334 7 gusting 13 15.0
2019-Dec-09 12:13 308 7 gusting 13 15.0
2019-Dec-09 12:03 305 6 gusting 13 14.4
2019-Dec-09 11:53 318 7 gusting 14 14.4
2019-Dec-09 11:43 309 6 gusting 12 14.4
2019-Dec-09 11:33 333 6 gusting 15 14.4
2019-Dec-09 11:23 343 6 gusting 13 13.9
2019-Dec-09 11:13 336 6 gusting 11 13.3
2019-Dec-09 11:03 284 6 gusting 9 13.9
2019-Dec-09 10:53 322 0 gusting 8 14.4
2019-Dec-09 10:43 314 0 gusting 7 13.9
2019-Dec-09 10:33 323 3 gusting 11 13.9
2019-Dec-09 10:23 355 7 gusting 13 13.3
2019-Dec-09 10:13 304 7 gusting 13 13.3
2019-Dec-09 10:03 321 8 gusting 13 13.3
2019-Dec-09 09:53 355 6 gusting 12 12.8
2019-Dec-09 09:43 299 5 gusting 9 12.8
2019-Dec-09 09:33 320 5 gusting 10 12.8
2019-Dec-09 09:23 311 3 gusting 7 12.8
2019-Dec-09 09:13 333 4 gusting 8 12.2
2019-Dec-09 09:03 328 3 gusting 13 11.7
2019-Dec-09 08:53 009 5 gusting 10 11.7
2019-Dec-09 08:43 355 4 gusting 8 11.7
2019-Dec-09 08:33 331 2 gusting 6 11.7
2019-Dec-09 08:23 327 4 gusting 5 11.7
2019-Dec-09 08:13 322 0 gusting 4 11.1
2019-Dec-09 08:03 320 1 gusting 4 10.6
2019-Dec-09 07:53 210 0 gusting 4 10.0
2019-Dec-09 07:43 245 9.4
2019-Dec-09 07:33 238 9.4
2019-Dec-09 07:23 245 9.4
2019-Dec-09 07:13 013 0 gusting 3 10.0
2019-Dec-09 07:03 261 10.0
2019-Dec-09 06:53 261 10.0
2019-Dec-09 06:43 241 3 gusting 9 10.6
2019-Dec-09 06:33 241 1 gusting 6 10.6
2019-Dec-09 06:23 249 2 gusting 4 10.6
2019-Dec-09 06:13 025 11.1
2019-Dec-09 06:03 044 11.7
2019-Dec-09 05:53 045 11.7
2019-Dec-09 05:43 028 1 gusting 9 11.7
2019-Dec-09 05:33 251 3 gusting 7 11.7
2019-Dec-09 05:23 261 4 gusting 8 11.7
2019-Dec-09 05:13 015 4 gusting 8 11.1
2019-Dec-09 05:03 252 5 gusting 13 11.7
2019-Dec-09 04:53 248 7 gusting 16 11.7
2019-Dec-09 04:43 250 6 gusting 11 11.1
2019-Dec-09 04:33 240 4 gusting 11 11.1
2019-Dec-09 04:23 360 6 gusting 9 11.1
2019-Dec-09 04:13 258 6 gusting 11 11.1
2019-Dec-09 04:03 264 2 gusting 6 10.6
2019-Dec-09 03:53 256 0 gusting 3 10.0
2019-Dec-09 03:43 254 10.0
2019-Dec-09 03:33 258 10.0
2019-Dec-09 03:23 259 10.0
2019-Dec-09 03:13 248 10.0
2019-Dec-09 03:03 257 0 gusting 3 10.0
2019-Dec-09 02:53 255 10.0
2019-Dec-09 02:43 260 10.6
2019-Dec-09 02:33 256 10.0
2019-Dec-09 02:23 256 0 gusting 2 10.6
2019-Dec-09 02:13 261 10.6
2019-Dec-09 02:03 277 3 gusting 6 10.6